sensor_id;sensor_type;location;lat;lon;timestamp;P1;durP1;ratioP1;P2;durP2;ratioP2
4472;SDS011;2249;42.626;23.320;2024-03-23T00:53:06;5.37;;;3.80;;
4472;SDS011;2249;42.626;23.320;2024-03-23T00:55:33;2.60;;;2.13;;
4472;SDS011;2249;42.626;23.320;2024-03-23T00:57:58;3.50;;;3.20;;
4472;SDS011;2249;42.626;23.320;2024-03-23T01:00:26;7.20;;;2.20;;
4472;SDS011;2249;42.626;23.320;2024-03-23T01:02:52;3.30;;;2.37;;
4472;SDS011;2249;42.626;23.320;2024-03-23T01:05:19;4.43;;;2.73;;
4472;SDS011;2249;42.626;23.320;2024-03-23T01:07:45;3.40;;;2.30;;
4472;SDS011;2249;42.626;23.320;2024-03-23T01:10:13;3.60;;;2.33;;
4472;SDS011;2249;42.626;23.320;2024-03-23T01:12:39;5.17;;;2.90;;
4472;SDS011;2249;42.626;23.320;2024-03-23T01:15:06;3.23;;;2.80;;
4472;SDS011;2249;42.626;23.320;2024-03-23T01:17:32;11.80;;;4.27;;
4472;SDS011;2249;42.626;23.320;2024-03-23T01:19:59;37.47;;;12.17;;
4472;SDS011;2249;42.626;23.320;2024-03-23T01:22:25;22.80;;;8.33;;
4472;SDS011;2249;42.626;23.320;2024-03-23T01:24:52;14.70;;;6.90;;
4472;SDS011;2249;42.626;23.320;2024-03-23T01:27:19;25.27;;;12.90;;
4472;SDS011;2249;42.626;23.320;2024-03-23T01:29:45;4.10;;;3.30;;
4472;SDS011;2249;42.626;23.320;2024-03-23T01:32:11;5.23;;;3.00;;
4472;SDS011;2249;42.626;23.320;2024-03-23T01:34:38;6.27;;;3.10;;
4472;SDS011;2249;42.626;23.320;2024-03-23T01:37:04;4.70;;;2.67;;
4472;SDS011;2249;42.626;23.320;2024-03-23T01:39:31;5.93;;;2.83;;
4472;SDS011;2249;42.626;23.320;2024-03-23T01:41:57;6.23;;;3.50;;
4472;SDS011;2249;42.626;23.320;2024-03-23T01:44:25;5.50;;;3.23;;
4472;SDS011;2249;42.626;23.320;2024-03-23T01:46:51;5.03;;;3.00;;
4472;SDS011;2249;42.626;23.320;2024-03-23T01:49:19;9.87;;;6.30;;
4472;SDS011;2249;42.626;23.320;2024-03-23T01:51:47;55.17;;;22.90;;
4472;SDS011;2249;42.626;23.320;2024-03-23T01:54:15;4.17;;;2.70;;
4472;SDS011;2249;42.626;23.320;2024-03-23T01:56:41;4.93;;;2.53;;
4472;SDS011;2249;42.626;23.320;2024-03-23T01:59:07;6.90;;;2.60;;
4472;SDS011;2249;42.626;23.320;2024-03-23T02:01:35;2.43;;;2.00;;
4472;SDS011;2249;42.626;23.320;2024-03-23T02:04:02;3.00;;;2.40;;
4472;SDS011;2249;42.626;23.320;2024-03-23T02:06:28;3.40;;;2.90;;
4472;SDS011;2249;42.626;23.320;2024-03-23T02:08:56;4.83;;;3.30;;
4472;SDS011;2249;42.626;23.320;2024-03-23T02:11:22;4.50;;;2.80;;
4472;SDS011;2249;42.626;23.320;2024-03-23T02:13:48;3.70;;;2.90;;
4472;SDS011;2249;42.626;23.320;2024-03-23T02:16:14;3.20;;;2.70;;
4472;SDS011;2249;42.626;23.320;2024-03-23T02:18:42;3.60;;;2.70;;
4472;SDS011;2249;42.626;23.320;2024-03-23T02:21:08;3.60;;;2.80;;
4472;SDS011;2249;42.626;23.320;2024-03-23T02:23:36;3.50;;;3.07;;
4472;SDS011;2249;42.626;23.320;2024-03-23T02:26:03;5.77;;;3.53;;
4472;SDS011;2249;42.626;23.320;2024-03-23T02:28:29;6.60;;;3.77;;
4472;SDS011;2249;42.626;23.320;2024-03-23T02:30:56;3.63;;;2.90;;
4472;SDS011;2249;42.626;23.320;2024-03-23T02:33:24;5.97;;;3.90;;
4472;SDS011;2249;42.626;23.320;2024-03-23T02:35:50;6.23;;;4.10;;
4472;SDS011;2249;42.626;23.320;2024-03-23T02:38:17;7.10;;;4.03;;
4472;SDS011;2249;42.626;23.320;2024-03-23T02:40:44;7.23;;;4.30;;
4472;SDS011;2249;42.626;23.320;2024-03-23T02:43:11;7.33;;;4.10;;
4472;SDS011;2249;42.626;23.320;2024-03-23T02:45:37;21.23;;;10.33;;
4472;SDS011;2249;42.626;23.320;2024-03-23T02:48:04;7.97;;;4.97;;
4472;SDS011;2249;42.626;23.320;2024-03-23T02:50:30;6.83;;;4.40;;
4472;SDS011;2249;42.626;23.320;2024-03-23T02:52:57;9.50;;;5.73;;
4472;SDS011;2249;42.626;23.320;2024-03-23T02:55:24;6.90;;;3.50;;
4472;SDS011;2249;42.626;23.320;2024-03-23T02:57:52;3.60;;;3.30;;
4472;SDS011;2249;42.626;23.320;2024-03-23T03:00:18;3.57;;;2.90;;
4472;SDS011;2249;42.626;23.320;2024-03-23T03:02:45;5.30;;;3.33;;
4472;SDS011;2249;42.626;23.320;2024-03-23T03:05:11;4.70;;;3.10;;
4472;SDS011;2249;42.626;23.320;2024-03-23T03:07:40;4.37;;;3.90;;
4472;SDS011;2249;42.626;23.320;2024-03-23T03:10:06;5.60;;;3.80;;
4472;SDS011;2249;42.626;23.320;2024-03-23T03:12:36;3.90;;;2.90;;
4472;SDS011;2249;42.626;23.320;2024-03-23T03:15:04;5.70;;;3.60;;
4472;SDS011;2249;42.626;23.320;2024-03-23T03:17:31;5.07;;;3.30;;
4472;SDS011;2249;42.626;23.320;2024-03-23T03:19:57;14.77;;;5.63;;
4472;SDS011;2249;42.626;23.320;2024-03-23T03:22:25;7.10;;;3.80;;
4472;SDS011;2249;42.626;23.320;2024-03-23T03:24:51;6.37;;;3.60;;
4472;SDS011;2249;42.626;23.320;2024-03-23T03:27:18;11.63;;;4.33;;
4472;SDS011;2249;42.626;23.320;2024-03-23T03:29:44;8.87;;;3.63;;
4472;SDS011;2249;42.626;23.320;2024-03-23T03:32:12;5.23;;;4.20;;
4472;SDS011;2249;42.626;23.320;2024-03-23T03:34:38;5.70;;;3.60;;
4472;SDS011;2249;42.626;23.320;2024-03-23T03:37:05;6.60;;;3.83;;
4472;SDS011;2249;42.626;23.320;2024-03-23T03:39:31;7.13;;;4.43;;
4472;SDS011;2249;42.626;23.320;2024-03-23T03:41:58;4.37;;;3.40;;
4472;SDS011;2249;42.626;23.320;2024-03-23T03:44:24;7.10;;;4.30;;
4472;SDS011;2249;42.626;23.320;2024-03-23T03:46:52;6.30;;;4.13;;
4472;SDS011;2249;42.626;23.320;2024-03-23T03:49:19;7.07;;;4.53;;
4472;SDS011;2249;42.626;23.320;2024-03-23T03:51:46;3.93;;;3.50;;
4472;SDS011;2249;42.626;23.320;2024-03-23T03:54:12;4.80;;;4.10;;
4472;SDS011;2249;42.626;23.320;2024-03-23T03:56:39;7.90;;;4.40;;
4472;SDS011;2249;42.626;23.320;2024-03-23T03:59:05;5.90;;;3.70;;
4472;SDS011;2249;42.626;23.320;2024-03-23T04:01:32;4.87;;;3.50;;
4472;SDS011;2249;42.626;23.320;2024-03-23T04:03:58;6.67;;;4.30;;
4472;SDS011;2249;42.626;23.320;2024-03-23T04:06:26;5.50;;;3.87;;
4472;SDS011;2249;42.626;23.320;2024-03-23T04:08:52;5.67;;;4.17;;
4472;SDS011;2249;42.626;23.320;2024-03-23T04:11:19;5.27;;;3.80;;
4472;SDS011;2249;42.626;23.320;2024-03-23T04:13:45;7.07;;;4.57;;
4472;SDS011;2249;42.626;23.320;2024-03-23T04:16:13;4.13;;;3.73;;
4472;SDS011;2249;42.626;23.320;2024-03-23T04:18:50;8.23;;;3.90;;
4472;SDS011;2249;42.626;23.320;2024-03-23T04:21:16;5.63;;;4.07;;
4472;SDS011;2249;42.626;23.320;2024-03-23T04:23:43;11.00;;;6.90;;
4472;SDS011;2249;42.626;23.320;2024-03-23T04:26:10;8.23;;;6.03;;
4472;SDS011;2249;42.626;23.320;2024-03-23T04:28:36;9.17;;;6.30;;
4472;SDS011;2249;42.626;23.320;2024-03-23T04:31:03;14.60;;;8.37;;
4472;SDS011;2249;42.626;23.320;2024-03-23T04:33:30;5.93;;;4.60;;
4472;SDS011;2249;42.626;23.320;2024-03-23T04:35:56;6.27;;;4.93;;
4472;SDS011;2249;42.626;23.320;2024-03-23T04:38:23;8.97;;;5.63;;
4472;SDS011;2249;42.626;23.320;2024-03-23T04:40:55;49.47;;;15.57;;
4472;SDS011;2249;42.626;23.320;2024-03-23T04:43:21;10.90;;;4.77;;
4472;SDS011;2249;42.626;23.320;2024-03-23T04:45:47;20.07;;;7.27;;
4472;SDS011;2249;42.626;23.320;2024-03-23T04:48:14;9.50;;;5.10;;
4472;SDS011;2249;42.626;23.320;2024-03-23T04:50:41;6.03;;;4.70;;
4472;SDS011;2249;42.626;23.320;2024-03-23T04:53:08;7.13;;;4.27;;
4472;SDS011;2249;42.626;23.320;2024-03-23T04:55:34;7.90;;;4.60;;
4472;SDS011;2249;42.626;23.320;2024-03-23T04:58:02;6.73;;;5.07;;
4472;SDS011;2249;42.626;23.320;2024-03-23T05:00:28;6.67;;;4.77;;
4472;SDS011;2249;42.626;23.320;2024-03-23T05:02:55;6.23;;;4.30;;
4472;SDS011;2249;42.626;23.320;2024-03-23T05:05:21;5.93;;;4.10;;
4472;SDS011;2249;42.626;23.320;2024-03-23T05:07:49;6.97;;;5.40;;
4472;SDS011;2249;42.626;23.320;2024-03-23T05:10:14;8.50;;;5.40;;
4472;SDS011;2249;42.626;23.320;2024-03-23T05:12:41;9.80;;;6.70;;
4472;SDS011;2249;42.626;23.320;2024-03-23T05:15:10;18.57;;;10.70;;
4472;SDS011;2249;42.626;23.320;2024-03-23T05:17:37;25.77;;;10.70;;
4472;SDS011;2249;42.626;23.320;2024-03-23T05:20:04;23.90;;;13.40;;
4472;SDS011;2249;42.626;23.320;2024-03-23T05:22:30;18.00;;;11.10;;
4472;SDS011;2249;42.626;23.320;2024-03-23T05:24:57;14.87;;;9.10;;
4472;SDS011;2249;42.626;23.320;2024-03-23T05:27:23;14.93;;;9.03;;
4472;SDS011;2249;42.626;23.320;2024-03-23T05:29:50;14.77;;;9.13;;
4472;SDS011;2249;42.626;23.320;2024-03-23T05:32:17;15.73;;;8.57;;
4472;SDS011;2249;42.626;23.320;2024-03-23T05:34:44;12.80;;;8.03;;
4472;SDS011;2249;42.626;23.320;2024-03-23T05:37:10;13.33;;;7.93;;
4472;SDS011;2249;42.626;23.320;2024-03-23T05:39:37;13.03;;;8.03;;
4472;SDS011;2249;42.626;23.320;2024-03-23T05:42:13;10.10;;;7.80;;
4472;SDS011;2249;42.626;23.320;2024-03-23T05:44:49;15.23;;;8.60;;
4472;SDS011;2249;42.626;23.320;2024-03-23T05:47:16;14.43;;;9.40;;
4472;SDS011;2249;42.626;23.320;2024-03-23T05:49:43;16.60;;;10.17;;
4472;SDS011;2249;42.626;23.320;2024-03-23T05:52:09;19.20;;;12.10;;
4472;SDS011;2249;42.626;23.320;2024-03-23T05:54:37;25.00;;;12.03;;
4472;SDS011;2249;42.626;23.320;2024-03-23T05:57:02;20.73;;;12.27;;
4472;SDS011;2249;42.626;23.320;2024-03-23T05:59:29;21.53;;;12.80;;
4472;SDS011;2249;42.626;23.320;2024-03-23T06:01:56;20.27;;;12.53;;
4472;SDS011;2249;42.626;23.320;2024-03-23T06:04:24;22.13;;;12.63;;
4472;SDS011;2249;42.626;23.320;2024-03-23T06:06:51;17.87;;;12.57;;
4472;SDS011;2249;42.626;23.320;2024-03-23T06:09:18;17.30;;;13.00;;
4472;SDS011;2249;42.626;23.320;2024-03-23T06:11:45;18.57;;;12.63;;
4472;SDS011;2249;42.626;23.320;2024-03-23T06:14:12;16.00;;;11.70;;
4472;SDS011;2249;42.626;23.320;2024-03-23T06:16:38;23.20;;;12.80;;
4472;SDS011;2249;42.626;23.320;2024-03-23T06:19:06;17.10;;;11.73;;
4472;SDS011;2249;42.626;23.320;2024-03-23T06:21:33;19.30;;;12.40;;
4472;SDS011;2249;42.626;23.320;2024-03-23T06:24:00;19.03;;;10.47;;
4472;SDS011;2249;42.626;23.320;2024-03-23T06:26:26;15.33;;;11.27;;
4472;SDS011;2249;42.626;23.320;2024-03-23T06:28:53;14.70;;;9.80;;
4472;SDS011;2249;42.626;23.320;2024-03-23T06:31:19;19.27;;;11.93;;
4472;SDS011;2249;42.626;23.320;2024-03-23T06:33:46;27.43;;;13.70;;
4472;SDS011;2249;42.626;23.320;2024-03-23T06:36:12;20.27;;;11.60;;
4472;SDS011;2249;42.626;23.320;2024-03-23T06:38:40;17.23;;;11.43;;
4472;SDS011;2249;42.626;23.320;2024-03-23T06:41:06;16.60;;;11.30;;
4472;SDS011;2249;42.626;23.320;2024-03-23T06:43:33;25.00;;;13.03;;
4472;SDS011;2249;42.626;23.320;2024-03-23T06:45:59;20.10;;;12.00;;
4472;SDS011;2249;42.626;23.320;2024-03-23T06:48:26;23.10;;;12.20;;
4472;SDS011;2249;42.626;23.320;2024-03-23T06:50:55;17.80;;;10.87;;
4472;SDS011;2249;42.626;23.320;2024-03-23T06:53:22;22.33;;;11.80;;
4472;SDS011;2249;42.626;23.320;2024-03-23T06:55:51;19.77;;;10.73;;
4472;SDS011;2249;42.626;23.320;2024-03-23T06:58:19;24.67;;;13.20;;
4472;SDS011;2249;42.626;23.320;2024-03-23T07:00:46;21.63;;;11.80;;
4472;SDS011;2249;42.626;23.320;2024-03-23T07:03:28;16.40;;;10.83;;
4472;SDS011;2249;42.626;23.320;2024-03-23T07:05:57;19.37;;;10.73;;
4472;SDS011;2249;42.626;23.320;2024-03-23T07:08:24;14.30;;;10.27;;
4472;SDS011;2249;42.626;23.320;2024-03-23T07:10:56;24.90;;;11.20;;
4472;SDS011;2249;42.626;23.320;2024-03-23T07:13:22;19.77;;;10.83;;
4472;SDS011;2249;42.626;23.320;2024-03-23T07:15:52;19.53;;;11.20;;
4472;SDS011;2249;42.626;23.320;2024-03-23T07:18:18;25.97;;;11.30;;
4472;SDS011;2249;42.626;23.320;2024-03-23T07:20:51;18.60;;;12.50;;
4472;SDS011;2249;42.626;23.320;2024-03-23T07:23:17;21.00;;;11.50;;
4472;SDS011;2249;42.626;23.320;2024-03-23T07:25:44;19.47;;;11.70;;
4472;SDS011;2249;42.626;23.320;2024-03-23T07:28:11;17.33;;;11.37;;
4472;SDS011;2249;42.626;23.320;2024-03-23T07:30:38;20.33;;;12.90;;
4472;SDS011;2249;42.626;23.320;2024-03-23T07:33:04;21.13;;;10.80;;
4472;SDS011;2249;42.626;23.320;2024-03-23T07:35:32;51.70;;;22.03;;
4472;SDS011;2249;42.626;23.320;2024-03-23T07:37:59;18.47;;;10.90;;
4472;SDS011;2249;42.626;23.320;2024-03-23T07:40:31;20.37;;;11.97;;
4472;SDS011;2249;42.626;23.320;2024-03-23T07:42:58;20.07;;;10.70;;
4472;SDS011;2249;42.626;23.320;2024-03-23T07:45:25;25.97;;;12.00;;
4472;SDS011;2249;42.626;23.320;2024-03-23T07:47:52;22.03;;;11.47;;
4472;SDS011;2249;42.626;23.320;2024-03-23T07:50:17;22.03;;;12.23;;
4472;SDS011;2249;42.626;23.320;2024-03-23T07:52:44;25.33;;;13.50;;
4472;SDS011;2249;42.626;23.320;2024-03-23T07:55:10;30.77;;;12.47;;
4472;SDS011;2249;42.626;23.320;2024-03-23T07:57:37;27.47;;;13.20;;
4472;SDS011;2249;42.626;23.320;2024-03-23T08:00:03;24.90;;;13.27;;
4472;SDS011;2249;42.626;23.320;2024-03-23T08:02:31;21.63;;;13.03;;
4472;SDS011;2249;42.626;23.320;2024-03-23T08:04:57;21.20;;;12.90;;
4472;SDS011;2249;42.626;23.320;2024-03-23T08:07:23;18.60;;;11.20;;
4472;SDS011;2249;42.626;23.320;2024-03-23T08:09:50;23.70;;;12.83;;
4472;SDS011;2249;42.626;23.320;2024-03-23T08:12:17;23.87;;;16.00;;
4472;SDS011;2249;42.626;23.320;2024-03-23T08:14:44;21.97;;;12.77;;
4472;SDS011;2249;42.626;23.320;2024-03-23T08:17:11;23.03;;;13.47;;
4472;SDS011;2249;42.626;23.320;2024-03-23T08:19:38;26.40;;;13.87;;
4472;SDS011;2249;42.626;23.320;2024-03-23T08:22:04;17.67;;;12.00;;
4472;SDS011;2249;42.626;23.320;2024-03-23T08:24:30;21.23;;;13.40;;
4472;SDS011;2249;42.626;23.320;2024-03-23T08:26:58;22.23;;;11.87;;
4472;SDS011;2249;42.626;23.320;2024-03-23T08:29:24;23.23;;;11.20;;
4472;SDS011;2249;42.626;23.320;2024-03-23T08:31:51;24.70;;;12.70;;
4472;SDS011;2249;42.626;23.320;2024-03-23T08:34:17;20.07;;;11.00;;
4472;SDS011;2249;42.626;23.320;2024-03-23T08:36:45;30.93;;;13.83;;
4472;SDS011;2249;42.626;23.320;2024-03-23T08:39:11;21.50;;;12.53;;
4472;SDS011;2249;42.626;23.320;2024-03-23T08:41:38;20.30;;;12.50;;
4472;SDS011;2249;42.626;23.320;2024-03-23T08:44:08;17.53;;;11.90;;
4472;SDS011;2249;42.626;23.320;2024-03-23T08:46:35;15.93;;;11.80;;
4472;SDS011;2249;42.626;23.320;2024-03-23T08:49:07;20.93;;;12.13;;
4472;SDS011;2249;42.626;23.320;2024-03-23T08:51:33;23.57;;;12.17;;
4472;SDS011;2249;42.626;23.320;2024-03-23T08:54:01;19.43;;;13.00;;
4472;SDS011;2249;42.626;23.320;2024-03-23T08:56:27;27.23;;;11.87;;
4472;SDS011;2249;42.626;23.320;2024-03-23T08:58:54;18.67;;;10.57;;
4472;SDS011;2249;42.626;23.320;2024-03-23T09:01:19;16.93;;;10.53;;
4472;SDS011;2249;42.626;23.320;2024-03-23T09:03:47;22.60;;;11.03;;
4472;SDS011;2249;42.626;23.320;2024-03-23T09:06:13;17.53;;;11.60;;
4472;SDS011;2249;42.626;23.320;2024-03-23T09:08:42;21.50;;;11.00;;
4472;SDS011;2249;42.626;23.320;2024-03-23T09:11:09;16.15;;;10.82;;
4472;SDS011;2249;42.626;23.320;2024-03-23T09:13:37;27.87;;;9.70;;
4472;SDS011;2249;42.626;23.320;2024-03-23T09:16:03;29.37;;;10.57;;
4472;SDS011;2249;42.626;23.320;2024-03-23T09:18:31;24.47;;;10.93;;
4472;SDS011;2249;42.626;23.320;2024-03-23T09:20:57;25.58;;;12.43;;
4472;SDS011;2249;42.626;23.320;2024-03-23T09:23:24;15.43;;;10.30;;
4472;SDS011;2249;42.626;23.320;2024-03-23T09:25:50;17.58;;;11.30;;
4472;SDS011;2249;42.626;23.320;2024-03-23T09:28:18;19.43;;;11.13;;
4472;SDS011;2249;42.626;23.320;2024-03-23T09:30:44;27.23;;;11.73;;
4472;SDS011;2249;42.626;23.320;2024-03-23T09:33:10;17.20;;;10.93;;
4472;SDS011;2249;42.626;23.320;2024-03-23T09:35:37;19.00;;;10.63;;
4472;SDS011;2249;42.626;23.320;2024-03-23T09:38:04;16.23;;;10.40;;
4472;SDS011;2249;42.626;23.320;2024-03-23T09:40:29;17.10;;;9.90;;
4472;SDS011;2249;42.626;23.320;2024-03-23T09:42:57;24.90;;;11.10;;
4472;SDS011;2249;42.626;23.320;2024-03-23T09:45:26;16.20;;;9.53;;
4472;SDS011;2249;42.626;23.320;2024-03-23T09:47:53;14.03;;;9.17;;
4472;SDS011;2249;42.626;23.320;2024-03-23T09:50:21;16.23;;;10.07;;
4472;SDS011;2249;42.626;23.320;2024-03-23T09:52:48;19.07;;;10.40;;
4472;SDS011;2249;42.626;23.320;2024-03-23T09:55:14;19.23;;;10.73;;
4472;SDS011;2249;42.626;23.320;2024-03-23T09:57:41;20.77;;;10.33;;
4472;SDS011;2249;42.626;23.320;2024-03-23T10:00:07;13.47;;;10.50;;
4472;SDS011;2249;42.626;23.320;2024-03-23T10:02:36;17.60;;;11.17;;
4472;SDS011;2249;42.626;23.320;2024-03-23T10:05:02;17.90;;;9.30;;
4472;SDS011;2249;42.626;23.320;2024-03-23T10:07:29;20.60;;;9.70;;
4472;SDS011;2249;42.626;23.320;2024-03-23T10:09:54;16.20;;;10.27;;
4472;SDS011;2249;42.626;23.320;2024-03-23T10:12:23;19.20;;;10.27;;
4472;SDS011;2249;42.626;23.320;2024-03-23T10:14:49;19.03;;;10.50;;
4472;SDS011;2249;42.626;23.320;2024-03-23T10:17:21;20.13;;;10.80;;
4472;SDS011;2249;42.626;23.320;2024-03-23T10:19:52;13.07;;;10.47;;
4472;SDS011;2249;42.626;23.320;2024-03-23T10:22:20;20.90;;;10.70;;
4472;SDS011;2249;42.626;23.320;2024-03-23T10:24:46;21.67;;;11.07;;
4472;SDS011;2249;42.626;23.320;2024-03-23T10:27:15;17.85;;;11.15;;
4472;SDS011;2249;42.626;23.320;2024-03-23T10:29:42;20.30;;;11.87;;
4472;SDS011;2249;42.626;23.320;2024-03-23T10:32:09;18.63;;;10.37;;
4472;SDS011;2249;42.626;23.320;2024-03-23T10:34:35;15.87;;;10.60;;
4472;SDS011;2249;42.626;23.320;2024-03-23T10:37:05;19.97;;;11.27;;
4472;SDS011;2249;42.626;23.320;2024-03-23T10:39:33;17.53;;;11.60;;
4472;SDS011;2249;42.626;23.320;2024-03-23T10:42:02;18.00;;;10.70;;
4472;SDS011;2249;42.626;23.320;2024-03-23T10:44:29;15.23;;;9.95;;
4472;SDS011;2249;42.626;23.320;2024-03-23T10:46:57;16.13;;;11.70;;
4472;SDS011;2249;42.626;23.320;2024-03-23T10:49:27;17.27;;;10.10;;
4472;SDS011;2249;42.626;23.320;2024-03-23T10:51:58;21.17;;;10.17;;
4472;SDS011;2249;42.626;23.320;2024-03-23T10:54:25;14.50;;;10.40;;
4472;SDS011;2249;42.626;23.320;2024-03-23T10:56:53;19.42;;;11.00;;
4472;SDS011;2249;42.626;23.320;2024-03-23T10:59:19;16.55;;;10.50;;
4472;SDS011;2249;42.626;23.320;2024-03-23T11:01:54;16.33;;;10.13;;
4472;SDS011;2249;42.626;23.320;2024-03-23T11:04:28;17.60;;;9.20;;
4472;SDS011;2249;42.626;23.320;2024-03-23T11:06:55;29.07;;;10.67;;
4472;SDS011;2249;42.626;23.320;2024-03-23T11:12:10;16.63;;;10.00;;
4472;SDS011;2249;42.626;23.320;2024-03-23T11:14:42;18.80;;;9.30;;
4472;SDS011;2249;42.626;23.320;2024-03-23T11:17:10;15.30;;;10.20;;
4472;SDS011;2249;42.626;23.320;2024-03-23T11:19:36;15.93;;;9.82;;
4472;SDS011;2249;42.626;23.320;2024-03-23T11:22:04;15.63;;;10.40;;
4472;SDS011;2249;42.626;23.320;2024-03-23T11:24:31;19.40;;;9.63;;
4472;SDS011;2249;42.626;23.320;2024-03-23T11:26:58;16.17;;;10.23;;
4472;SDS011;2249;42.626;23.320;2024-03-23T11:29:27;13.93;;;9.03;;
4472;SDS011;2249;42.626;23.320;2024-03-23T11:31:55;12.97;;;9.63;;
4472;SDS011;2249;42.626;23.320;2024-03-23T11:34:20;16.97;;;9.90;;
4472;SDS011;2249;42.626;23.320;2024-03-23T11:36:47;16.73;;;10.20;;
4472;SDS011;2249;42.626;23.320;2024-03-23T11:39:13;12.43;;;8.80;;
4472;SDS011;2249;42.626;23.320;2024-03-23T11:41:46;16.95;;;10.27;;
4472;SDS011;2249;42.626;23.320;2024-03-23T11:44:14;12.70;;;8.33;;
4472;SDS011;2249;42.626;23.320;2024-03-23T11:46:42;14.68;;;9.48;;
4472;SDS011;2249;42.626;23.320;2024-03-23T11:49:19;20.40;;;9.20;;
4472;SDS011;2249;42.626;23.320;2024-03-23T11:51:47;16.40;;;8.13;;
4472;SDS011;2249;42.626;23.320;2024-03-23T11:54:13;13.27;;;8.43;;
4472;SDS011;2249;42.626;23.320;2024-03-23T11:56:40;13.37;;;8.60;;
4472;SDS011;2249;42.626;23.320;2024-03-23T11:59:06;17.27;;;9.07;;
4472;SDS011;2249;42.626;23.320;2024-03-23T12:01:33;13.30;;;8.60;;
4472;SDS011;2249;42.626;23.320;2024-03-23T12:04:01;12.73;;;8.30;;
4472;SDS011;2249;42.626;23.320;2024-03-23T12:06:28;11.40;;;7.23;;
4472;SDS011;2249;42.626;23.320;2024-03-23T12:08:53;11.27;;;6.70;;
4472;SDS011;2249;42.626;23.320;2024-03-23T12:11:32;10.17;;;6.57;;
4472;SDS011;2249;42.626;23.320;2024-03-23T12:13:59;7.20;;;5.60;;
4472;SDS011;2249;42.626;23.320;2024-03-23T12:16:27;11.70;;;6.97;;
4472;SDS011;2249;42.626;23.320;2024-03-23T12:18:53;20.60;;;7.63;;
4472;SDS011;2249;42.626;23.320;2024-03-23T12:21:34;11.60;;;7.20;;
4472;SDS011;2249;42.626;23.320;2024-03-23T12:24:01;8.80;;;6.20;;
4472;SDS011;2249;42.626;23.320;2024-03-23T12:26:28;10.17;;;5.50;;
4472;SDS011;2249;42.626;23.320;2024-03-23T12:28:55;9.67;;;5.40;;
4472;SDS011;2249;42.626;23.320;2024-03-23T12:31:22;9.02;;;5.50;;
4472;SDS011;2249;42.626;23.320;2024-03-23T12:33:49;8.33;;;5.77;;
4472;SDS011;2249;42.626;23.320;2024-03-23T12:36:16;9.53;;;8.63;;
4472;SDS011;2249;42.626;23.320;2024-03-23T12:38:43;12.93;;;6.23;;
4472;SDS011;2249;42.626;23.320;2024-03-23T12:41:10;10.40;;;6.30;;
4472;SDS011;2249;42.626;23.320;2024-03-23T12:43:37;8.43;;;6.53;;
4472;SDS011;2249;42.626;23.320;2024-03-23T12:46:03;10.20;;;8.00;;
4472;SDS011;2249;42.626;23.320;2024-03-23T12:48:30;14.20;;;8.27;;
4472;SDS011;2249;42.626;23.320;2024-03-23T12:50:56;12.27;;;7.50;;
4472;SDS011;2249;42.626;23.320;2024-03-23T12:53:23;12.80;;;7.00;;
4472;SDS011;2249;42.626;23.320;2024-03-23T12:55:50;10.90;;;6.40;;
4472;SDS011;2249;42.626;23.320;2024-03-23T12:58:18;13.40;;;6.43;;
4472;SDS011;2249;42.626;23.320;2024-03-23T13:00:44;12.47;;;6.70;;
4472;SDS011;2249;42.626;23.320;2024-03-23T13:03:13;13.30;;;6.40;;
4472;SDS011;2249;42.626;23.320;2024-03-23T13:05:39;11.90;;;6.10;;
4472;SDS011;2249;42.626;23.320;2024-03-23T13:08:12;8.23;;;5.90;;
4472;SDS011;2249;42.626;23.320;2024-03-23T13:10:40;6.60;;;4.67;;
4472;SDS011;2249;42.626;23.320;2024-03-23T13:13:09;5.17;;;3.47;;
4472;SDS011;2249;42.626;23.320;2024-03-23T13:15:35;10.40;;;3.77;;
4472;SDS011;2249;42.626;23.320;2024-03-23T13:18:02;4.00;;;2.90;;
4472;SDS011;2249;42.626;23.320;2024-03-23T13:20:28;8.63;;;2.10;;
4472;SDS011;2249;42.626;23.320;2024-03-23T13:22:56;3.80;;;2.27;;
4472;SDS011;2249;42.626;23.320;2024-03-23T13:25:22;3.33;;;1.83;;
4472;SDS011;2249;42.626;23.320;2024-03-23T13:27:49;4.30;;;2.80;;
4472;SDS011;2249;42.626;23.320;2024-03-23T13:30:17;2.13;;;1.87;;
4472;SDS011;2249;42.626;23.320;2024-03-23T13:32:44;2.60;;;2.00;;
4472;SDS011;2249;42.626;23.320;2024-03-23T13:35:09;2.00;;;1.60;;
4472;SDS011;2249;42.626;23.320;2024-03-23T13:37:36;3.77;;;2.30;;
4472;SDS011;2249;42.626;23.320;2024-03-23T13:40:02;4.17;;;2.60;;
4472;SDS011;2249;42.626;23.320;2024-03-23T13:42:29;2.40;;;1.53;;
4472;SDS011;2249;42.626;23.320;2024-03-23T13:44:55;3.67;;;1.90;;
4472;SDS011;2249;42.626;23.320;2024-03-23T13:47:23;3.97;;;1.93;;
4472;SDS011;2249;42.626;23.320;2024-03-23T13:49:49;1.90;;;1.70;;
4472;SDS011;2249;42.626;23.320;2024-03-23T13:52:15;2.37;;;2.07;;
4472;SDS011;2249;42.626;23.320;2024-03-23T13:54:42;4.43;;;3.40;;
4472;SDS011;2249;42.626;23.320;2024-03-23T13:57:11;2.90;;;1.90;;
4472;SDS011;2249;42.626;23.320;2024-03-23T13:59:37;2.63;;;1.67;;
4472;SDS011;2249;42.626;23.320;2024-03-23T14:02:04;2.70;;;2.10;;
4472;SDS011;2249;42.626;23.320;2024-03-23T14:04:31;2.70;;;1.80;;
4472;SDS011;2249;42.626;23.320;2024-03-23T14:06:57;1.60;;;1.50;;
4472;SDS011;2249;42.626;23.320;2024-03-23T14:09:23;17.57;;;5.80;;
4472;SDS011;2249;42.626;23.320;2024-03-23T14:11:50;3.57;;;2.40;;
4472;SDS011;2249;42.626;23.320;2024-03-23T14:14:18;2.67;;;2.10;;
4472;SDS011;2249;42.626;23.320;2024-03-23T14:16:58;3.07;;;1.97;;
4472;SDS011;2249;42.626;23.320;2024-03-23T14:19:26;3.20;;;2.30;;
4472;SDS011;2249;42.626;23.320;2024-03-23T14:21:55;2.60;;;1.80;;
4472;SDS011;2249;42.626;23.320;2024-03-23T14:24:22;3.50;;;2.50;;
4472;SDS011;2249;42.626;23.320;2024-03-23T14:26:49;3.50;;;2.00;;
4472;SDS011;2249;42.626;23.320;2024-03-23T14:29:16;3.80;;;2.40;;
4472;SDS011;2249;42.626;23.320;2024-03-23T14:31:41;3.67;;;1.97;;
4472;SDS011;2249;42.626;23.320;2024-03-23T14:34:08;2.07;;;1.77;;
4472;SDS011;2249;42.626;23.320;2024-03-23T14:36:35;1.70;;;1.57;;
4472;SDS011;2249;42.626;23.320;2024-03-23T14:39:03;3.83;;;2.00;;
4472;SDS011;2249;42.626;23.320;2024-03-23T14:41:29;4.20;;;2.43;;
4472;SDS011;2249;42.626;23.320;2024-03-23T14:43:56;5.30;;;2.00;;
4472;SDS011;2249;42.626;23.320;2024-03-23T14:46:22;4.07;;;1.90;;
4472;SDS011;2249;42.626;23.320;2024-03-23T14:48:48;3.47;;;2.40;;
4472;SDS011;2249;42.626;23.320;2024-03-23T14:51:14;2.93;;;2.27;;
4472;SDS011;2249;42.626;23.320;2024-03-23T14:53:42;2.80;;;2.17;;
4472;SDS011;2249;42.626;23.320;2024-03-23T14:56:11;3.23;;;1.77;;
4472;SDS011;2249;42.626;23.320;2024-03-23T14:58:40;2.53;;;1.70;;
4472;SDS011;2249;42.626;23.320;2024-03-23T15:01:07;3.50;;;2.33;;
4472;SDS011;2249;42.626;23.320;2024-03-23T15:03:34;2.90;;;2.40;;
4472;SDS011;2249;42.626;23.320;2024-03-23T15:06:00;3.33;;;2.33;;
4472;SDS011;2249;42.626;23.320;2024-03-23T15:08:28;3.63;;;2.03;;
4472;SDS011;2249;42.626;23.320;2024-03-23T15:10:54;2.90;;;2.07;;
4472;SDS011;2249;42.626;23.320;2024-03-23T15:13:22;6.20;;;2.43;;
4472;SDS011;2249;42.626;23.320;2024-03-23T15:15:48;3.67;;;2.28;;
4472;SDS011;2249;42.626;23.320;2024-03-23T15:18:16;9.33;;;2.90;;
4472;SDS011;2249;42.626;23.320;2024-03-23T15:20:51;5.30;;;2.90;;
4472;SDS011;2249;42.626;23.320;2024-03-23T15:23:18;6.13;;;2.80;;
4472;SDS011;2249;42.626;23.320;2024-03-23T15:25:43;7.57;;;3.03;;
4472;SDS011;2249;42.626;23.320;2024-03-23T15:28:10;3.30;;;2.40;;
4472;SDS011;2249;42.626;23.320;2024-03-23T15:30:37;7.47;;;3.37;;
4472;SDS011;2249;42.626;23.320;2024-03-23T15:33:04;6.23;;;3.03;;
4472;SDS011;2249;42.626;23.320;2024-03-23T15:35:30;14.07;;;5.17;;
4472;SDS011;2249;42.626;23.320;2024-03-23T15:37:57;7.43;;;3.50;;
4472;SDS011;2249;42.626;23.320;2024-03-23T15:43:26;8.23;;;4.50;;
4472;SDS011;2249;42.626;23.320;2024-03-23T15:45:57;8.33;;;3.83;;